Time;durP1;ratioP1;P1;durP2;ratioP2;P2;SDS_P1;SDS_P2;PMS_P1;PMS_P2;Temp;Humidity;BMP_temperature;BMP_pressure;BME280_temperature;BME280_humidity;BME280_pressure;Samples;Min_cycle;Max_cycle;Signal;HPM_P1;HPM_P2
2023/08/24 00:00:07;;;;;;;20.92;5.83;;;;;;;25.40;42.52;100157.85;1799537;79;21345;-78
2023/08/24 00:03:12;;;;;;;13.50;6.05;;;;;;;25.21;42.89;100156.98;1801170;79;21305;-78
2023/08/24 00:06:19;;;;;;;14.15;6.53;;;;;;;25.13;43.07;100150.55;1800821;79;22244;-78
2023/08/24 00:09:25;;;;;;;16.12;6.35;;;;;;;25.14;43.00;100155.02;1800943;79;21293;-78
2023/08/24 00:12:32;;;;;;;15.23;6.37;;;;;;;25.23;42.90;100152.53;1799911;79;21931;-78
2023/08/24 00:15:39;;;;;;;14.70;6.70;;;;;;;25.13;43.06;100151.11;1800918;79;21293;-78
2023/08/24 00:18:44;;;;;;;16.23;5.85;;;;;;;25.16;43.02;100153.34;1800916;79;21310;-78
2023/08/24 00:21:50;;;;;;;19.12;6.83;;;;;;;25.05;43.31;100159.44;1799410;79;21281;-78
2023/08/24 00:24:56;;;;;;;13.93;6.08;;;;;;;25.21;42.98;100158.38;1799851;79;21277;-78
2023/08/24 00:28:04;;;;;;;13.03;6.67;;;;;;;24.81;43.80;100161.05;1799967;79;21332;-78
2023/08/24 00:31:11;;;;;;;17.35;7.17;;;;;;;24.80;43.82;100159.37;1801388;79;21302;-77
2023/08/24 00:34:17;;;;;;;16.30;7.55;;;;;;;25.07;43.33;100158.63;1800386;79;21937;-78
2023/08/24 00:37:23;;;;;;;17.82;7.97;;;;;;;25.19;43.10;100159.79;1800890;79;21634;-78
2023/08/24 00:40:30;;;;;;;19.00;6.83;;;;;;;25.13;43.02;100151.11;1801260;79;21294;-78
2023/08/24 00:43:38;;;;;;;13.65;6.58;;;;;;;24.99;43.39;100154.40;1799628;79;21324;-77
2023/08/24 00:46:44;;;;;;;12.50;6.03;;;;;;;24.51;44.39;100143.56;1801560;79;22599;-78
2023/08/24 00:49:50;;;;;;;12.13;6.10;;;;;;;24.88;43.71;100153.23;1800993;79;22550;-78
2023/08/24 00:52:56;;;;;;;15.50;6.33;;;;;;;24.48;44.43;100152.80;1800970;79;21303;-78
2023/08/24 00:56:03;;;;;;;16.00;6.10;;;;;;;24.46;44.46;100156.97;1800965;79;21295;-78
2023/08/24 00:59:09;;;;;;;18.00;7.03;;;;;;;24.83;43.81;100161.05;1800933;79;21287;-78
2023/08/24 01:02:15;;;;;;;16.12;6.22;;;;;;;24.47;44.42;100157.27;1769976;79;21291;-78
2023/08/24 01:05:21;;;;;;;13.70;5.58;;;;;;;24.53;44.35;100160.38;1773280;81;21321;-78
2023/08/24 01:08:28;;;;;;;12.37;6.37;;;;;;;24.55;44.24;100158.13;1774425;81;22795;-78
2023/08/24 01:11:59;;;;;;;13.48;6.17;;;;;;;24.61;44.15;100158.46;1774256;81;21614;-78
2023/08/24 01:15:27;;;;;;;20.17;5.85;;;;;;;24.53;44.30;100166.52;1773182;81;21907;-77
2023/08/24 01:18:33;;;;;;;12.78;5.92;;;;;;;24.84;43.74;100168.34;1774895;81;21316;-77
2023/08/24 01:21:41;;;;;;;14.70;6.50;;;;;;;24.59;44.18;100168.22;1774286;81;21923;-77
2023/08/24 01:24:51;;;;;;;15.60;6.22;;;;;;;24.74;43.90;100169.11;1773934;81;22612;-78
2023/08/24 01:27:56;;;;;;;;;;;;;;;24.90;43.61;100177.59;1776450;81;21347;-77
2023/08/24 01:31:03;;;;;;;14.07;6.37;;;;;;;25.01;43.37;100173.70;1787136;79;20740;-77
2023/08/24 01:34:12;;;;;;;12.18;5.05;;;;;;;24.83;43.66;100172.80;1779061;79;21340;-77
2023/08/24 01:37:17;;;;;;;10.13;5.45;;;;;;;24.89;43.56;100173.09;1773571;80;21347;-76
2023/08/24 01:40:35;;;;;;;10.55;5.12;;;;;;;24.73;43.79;100168.00;1773434;81;21304;-77
2023/08/24 01:43:40;;;;;;;17.62;5.62;;;;;;;24.73;43.93;100163.80;1774388;81;21379;-77
2023/08/24 01:46:46;;;;;;;14.55;6.10;;;;;;;24.70;44.03;100167.14;1774865;81;21332;-77
2023/08/24 01:49:52;;;;;;;19.23;5.65;;;;;;;24.73;43.84;100167.44;1774979;81;21349;-77
2023/08/24 01:52:58;;;;;;;13.62;5.42;;;;;;;24.51;44.26;100170.97;1738184;82;21332;-77
2023/08/24 01:56:03;;;;;;;8.95;5.22;;;;;;;24.72;43.71;100171.36;1710905;83;21350;-77
2023/08/24 01:59:10;;;;;;;11.35;4.97;;;;;;;24.64;43.96;100173.83;1737102;82;21354;-77
2023/08/24 02:02:17;;;;;;;12.25;5.85;;;;;;;24.76;43.78;100168.03;1742378;81;21219;-77
2023/08/24 02:05:24;;;;;;;11.03;5.05;;;;;;;24.48;44.33;100179.91;1745883;82;21331;-77
2023/08/24 02:11:18;;;;;;;11.22;5.42;;;;;;;24.43;44.53;100175.70;1875307;76;28048;-78
2023/08/24 02:14:25;;;;;;;17.70;6.90;;;;;;;24.41;44.49;100175.11;1848775;77;21287;-78
2023/08/24 02:17:34;;;;;;;22.55;7.40;;;;;;;24.28;44.72;100179.75;1772569;80;21315;-78
2023/08/24 02:20:46;;;;;;;9.80;5.42;;;;;;;24.09;45.34;100177.42;1733073;81;21184;-78
2023/08/24 02:23:54;;;;;;;13.75;5.70;;;;;;;24.14;45.28;100183.04;1756509;81;21288;-77
2023/08/24 02:27:01;;;;;;;9.78;5.62;;;;;;;24.12;45.22;100182.45;1779863;80;21308;-77
2023/08/24 02:30:06;;;;;;;14.50;6.25;;;;;;;24.32;44.78;100187.32;1766472;81;21922;-78
2023/08/24 02:33:12;;;;;;;20.62;7.08;;;;;;;24.21;45.02;100189.22;1747414;79;21256;-77
2023/08/24 02:36:18;;;;;;;13.85;6.08;;;;;;;24.21;44.95;100188.38;1780595;80;21296;-77
2023/08/24 02:39:25;;;;;;;18.35;6.78;;;;;;;24.21;45.01;100187.82;1747568;82;21617;-77
2023/08/24 02:42:31;;;;;;;13.22;6.10;;;;;;;24.35;44.76;100197.13;1749204;82;22194;-77
2023/08/24 02:45:37;;;;;;;16.57;6.90;;;;;;;24.46;44.48;100204.48;1749016;82;21866;-77
2023/08/24 02:48:44;;;;;;;14.20;6.37;;;;;;;24.28;44.86;100199.31;1730229;82;21335;-77
2023/08/24 02:51:50;;;;;;;15.08;6.87;;;;;;;24.18;45.12;100206.55;1717890;83;21895;-77
2023/08/24 02:54:57;;;;;;;24.23;7.55;;;;;;;24.04;45.39;100206.69;1713371;83;21343;-77
2023/08/24 02:58:03;;;;;;;12.88;6.33;;;;;;;24.03;45.48;100209.20;1719144;83;21326;-78
2023/08/24 03:01:12;;;;;;;13.08;6.75;;;;;;;24.02;45.56;100213.11;1747898;82;21334;-77
2023/08/24 03:04:19;;;;;;;22.30;7.25;;;;;;;24.05;45.54;100215.38;1751917;82;21295;-77
2023/08/24 03:07:25;;;;;;;18.05;6.10;;;;;;;24.36;45.00;100217.84;1751447;82;22000;-78
2023/08/24 03:10:30;;;;;;;16.85;6.37;;;;;;;24.36;44.92;100216.45;1749409;82;21319;-78
2023/08/24 03:13:38;;;;;;;14.80;6.85;;;;;;;24.40;44.98;100226.55;1746928;82;21315;-77
2023/08/24 03:16:45;;;;;;;15.78;6.45;;;;;;;24.81;44.36;100224.83;1746960;82;21347;-77
2023/08/24 03:19:51;;;;;;;15.18;6.55;;;;;;;24.98;43.85;100224.07;1759826;81;21300;-77
2023/08/24 03:22:57;;;;;;;14.30;5.72;;;;;;;24.66;44.67;100225.59;1729086;83;21331;-77
2023/08/24 03:26:03;;;;;;;15.75;5.62;;;;;;;24.81;44.81;100230.41;1728406;83;21363;-77
2023/08/24 03:29:10;;;;;;;14.38;5.22;;;;;;;24.90;44.61;100230.74;1729075;83;21890;-77
2023/08/24 03:32:17;;;;;;;27.98;6.22;;;;;;;24.78;44.99;100235.70;1727181;82;22005;-78
2023/08/24 03:35:23;;;;;;;16.67;6.00;;;;;;;25.07;44.59;100238.38;1715002;83;21831;-77
2023/08/24 03:38:30;;;;;;;10.88;5.42;;;;;;;25.10;44.10;100240.64;1726366;83;21347;-77
2023/08/24 03:41:37;;;;;;;16.02;5.62;;;;;;;25.20;43.83;100243.47;1715383;83;21350;-77
2023/08/24 03:44:42;;;;;;;8.48;4.60;;;;;;;25.27;43.80;100243.79;1746323;82;21893;-77
2023/08/24 03:47:49;;;;;;;11.60;4.60;;;;;;;25.35;43.53;100247.42;1733134;82;21287;-77
2023/08/24 03:50:56;;;;;;;18.15;5.08;;;;;;;25.73;42.89;100247.50;1745259;82;21276;-77
2023/08/24 03:54:05;;;;;;;17.37;5.40;;;;;;;26.04;42.44;100253.17;1746876;82;21312;-77
2023/08/24 03:57:11;;;;;;;14.83;4.83;;;;;;;25.78;42.95;100253.70;1726651;83;21386;-77
2023/08/24 04:00:18;;;;;;;16.45;5.60;;;;;;;25.62;43.31;100252.26;1716449;83;21330;-77
2023/08/24 04:03:24;;;;;;;11.08;4.78;;;;;;;25.72;43.47;100252.27;1729364;82;21814;-77
2023/08/24 04:06:31;;;;;;;11.38;4.12;;;;;;;26.01;43.11;100257.36;1727177;83;21335;-77
2023/08/24 04:09:38;;;;;;;11.45;5.20;;;;;;;26.25;42.78;100268.31;1716441;83;21992;-77
2023/08/24 04:12:45;;;;;;;15.13;6.10;;;;;;;26.83;41.90;100259.53;1713698;83;21322;-77
2023/08/24 04:15:51;;;;;;;18.42;6.62;;;;;;;27.14;41.25;100261.67;1715158;83;22725;-77
2023/08/24 04:18:57;;;;;;;16.82;6.12;;;;;;;26.92;41.51;100265.41;1737859;82;21304;-77
2023/08/24 04:22:04;;;;;;;20.02;5.30;;;;;;;27.04;41.35;100272.09;1745510;82;21328;-78
2023/08/24 04:25:09;;;;;;;13.35;6.00;;;;;;;27.10;41.34;100257.80;1746181;82;21339;-77
2023/08/24 04:28:08;;;;;;;10.43;4.92;;;;;;;27.35;41.01;100261.59;1744909;82;21351;-77
2023/08/24 04:31:01;;;;;;;16.87;6.33;;;;;;;27.13;41.79;100258.59;1744469;82;22040;-77
2023/08/24 04:34:07;;;;;;;14.65;6.58;;;;;;;27.34;41.72;100259.36;1722245;82;22530;-78
2023/08/24 04:37:14;;;;;;;17.50;7.87;;;;;;;27.48;42.03;100258.16;1715060;83;21379;-78
2023/08/24 04:40:21;;;;;;;23.18;9.40;;;;;;;27.74;41.54;100261.09;1715206;83;21898;-78
2023/08/24 04:43:27;;;;;;;22.05;9.58;;;;;;;27.79;40.68;100253.19;1713762;83;21375;-78
2023/08/24 04:46:32;;;;;;;19.17;9.10;;;;;;;27.87;40.21;100251.75;1714943;83;21831;-78
2023/08/24 04:49:38;;;;;;;28.12;8.88;;;;;;;27.94;40.20;100255.05;1714892;82;21324;-78
2023/08/24 04:52:46;;;;;;;27.58;9.25;;;;;;;28.24;39.57;100249.75;1713725;83;21989;-78
2023/08/24 04:55:53;;;;;;;22.95;8.90;;;;;;;28.51;39.01;100253.43;1708104;84;21908;-78
2023/08/24 04:59:03;;;;;;;27.52;9.00;;;;;;;28.59;38.83;100249.14;1726435;83;21328;-77
2023/08/24 05:02:09;;;;;;;21.77;7.87;;;;;;;28.55;39.02;100254.52;1744345;82;21329;-77
2023/08/24 05:05:17;;;;;;;35.35;8.80;;;;;;;28.48;39.35;100251.23;1720412;82;21322;-78
2023/08/24 05:08:22;;;;;;;26.23;8.13;;;;;;;28.38;39.64;100254.98;1727798;83;21606;-78
2023/08/24 05:11:31;;;;;;;28.42;8.45;;;;;;;28.68;38.68;100262.84;1744925;82;21942;-78
2023/08/24 05:14:36;;;;;;;18.92;7.70;;;;;;;28.70;38.26;100256.33;1696360;83;21696;-78
2023/08/24 05:17:41;;;;;;;18.42;6.80;;;;;;;28.87;38.19;100249.66;1718816;83;21337;-77
2023/08/24 05:20:47;;;;;;;23.65;7.53;;;;;;;28.91;37.53;100251.32;1723837;83;21319;-77
2023/08/24 05:23:53;;;;;;;14.80;6.25;;;;;;;28.98;36.72;100238.60;1722384;83;22407;-77
2023/08/24 05:26:59;;;;;;;16.80;6.95;;;;;;;29.09;36.91;100246.34;1723687;83;21320;-78
2023/08/24 05:30:06;;;;;;;14.85;5.80;;;;;;;29.14;36.41;100245.44;1723910;83;21353;-78
2023/08/24 05:33:11;;;;;;;16.73;5.58;;;;;;;29.20;36.02;100247.88;1722583;83;21337;-78
2023/08/24 05:36:17;;;;;;;15.30;5.85;;;;;;;29.06;36.36;100249.75;1716880;83;21338;-79
2023/08/24 05:39:22;;;;;;;18.50;4.85;;;;;;;29.24;35.95;100246.13;1718105;83;21317;-78
2023/08/24 05:42:29;;;;;;;11.03;4.35;;;;;;;29.42;36.00;100250.69;1717981;83;21322;-78
2023/08/24 05:45:35;;;;;;;11.20;4.85;;;;;;;29.44;35.14;100243.59;1718107;83;21900;-78
2023/08/24 05:48:41;;;;;;;11.38;3.98;;;;;;;29.55;34.83;100249.98;1721043;83;21209;-78
2023/08/24 05:51:47;;;;;;;9.55;3.70;;;;;;;30.07;33.43;100239.57;1718343;83;21337;-79
2023/08/24 05:54:54;;;;;;;10.40;3.47;;;;;;;29.81;34.07;100252.40;1718259;83;21337;-78
2023/08/24 05:58:01;;;;;;;17.85;4.00;;;;;;;29.96;33.61;100254.96;1718043;83;21266;-78
2023/08/24 06:01:07;;;;;;;7.08;3.50;;;;;;;30.21;33.14;100248.11;1716799;83;21370;-78
2023/08/24 06:04:16;;;;;;;9.63;4.05;;;;;;;30.24;33.34;100251.13;1726743;82;21363;-78
2023/08/24 06:07:22;;;;;;;10.75;3.30;;;;;;;30.68;33.19;100255.42;1738980;82;21323;-78
2023/08/24 06:10:28;;;;;;;5.87;2.98;;;;;;;30.78;32.15;100252.42;1740193;82;21327;-78
2023/08/24 06:13:34;;;;;;;6.30;2.55;;;;;;;30.86;31.82;100256.48;1710729;83;21382;-78
2023/08/24 06:16:41;;;;;;;8.60;3.02;;;;;;;30.89;31.75;100255.88;1717657;83;21958;-79
2023/08/24 06:19:48;;;;;;;8.23;2.80;;;;;;;30.96;30.94;100252.07;1798501;79;21292;-78
2023/08/24 06:22:55;;;;;;;8.03;2.15;;;;;;;30.95;31.11;100255.19;1798608;79;21350;-79
2023/08/24 06:26:04;;;;;;;7.53;2.47;;;;;;;31.25;30.33;100263.03;1799087;79;21351;-79
2023/08/24 06:29:11;;;;;;;7.65;2.77;;;;;;;31.40;29.54;100265.30;1792065;79;22044;-79
2023/08/24 06:32:20;;;;;;;10.45;2.75;;;;;;;31.59;29.84;100255.26;1761713;79;21335;-79
2023/08/24 06:35:26;;;;;;;11.50;3.05;;;;;;;31.69;29.54;100260.09;1772283;79;21271;-79
2023/08/24 06:38:32;;;;;;;12.10;3.65;;;;;;;32.04;29.00;100260.40;1766601;81;21363;-78
2023/08/24 06:41:43;;;;;;;18.95;3.98;;;;;;;31.66;29.71;100261.30;1767443;81;22524;-78
2023/08/24 06:44:53;;;;;;;13.10;2.67;;;;;;;31.65;29.45;100263.29;1766159;81;21391;-78
2023/08/24 06:47:58;;;;;;;5.85;2.72;;;;;;;31.77;29.53;100257.09;1765983;81;21328;-78
2023/08/24 06:51:04;;;;;;;7.87;2.80;;;;;;;32.23;28.85;100258.23;1767320;81;21890;-77
2023/08/24 06:54:10;;;;;;;6.72;3.30;;;;;;;32.07;28.78;100256.94;1766847;81;21333;-78
2023/08/24 06:57:16;;;;;;;7.78;2.47;;;;;;;32.30;28.52;100254.94;1767261;81;21207;-78
2023/08/24 07:00:25;;;;;;;15.93;2.92;;;;;;;32.35;28.62;100253.97;1766493;81;21345;-78
2023/08/24 07:03:33;;;;;;;9.45;2.50;;;;;;;32.53;29.02;100257.20;1784254;79;21292;-78
2023/08/24 07:06:43;;;;;;;11.33;2.47;;;;;;;32.44;28.01;100252.06;1799319;79;21310;-78
2023/08/24 07:09:48;;;;;;;9.43;2.00;;;;;;;32.63;27.87;100254.08;1731367;82;22669;-77
2023/08/24 07:12:55;;;;;;;5.60;2.47;;;;;;;33.01;27.09;100259.27;1799574;79;21315;-77
2023/08/24 07:16:02;;;;;;;7.28;2.80;;;;;;;33.25;27.64;100258.84;1794169;79;21366;-78
2023/08/24 07:19:09;;;;;;;13.83;3.37;;;;;;;33.09;27.78;100256.23;1710759;83;21310;-78
2023/08/24 07:22:16;;;;;;;5.80;2.60;;;;;;;32.93;28.06;100255.81;1706211;84;21323;-77
2023/08/24 07:25:21;;;;;;;6.87;2.37;;;;;;;32.76;27.68;100253.15;1705362;84;21334;-77
2023/08/24 07:28:26;;;;;;;7.05;2.75;;;;;;;33.13;27.22;100255.83;1705832;84;21378;-78
2023/08/24 07:31:32;;;;;;;10.10;2.65;;;;;;;32.99;27.91;100261.03;1706032;84;21321;-77
2023/08/24 07:34:39;;;;;;;8.43;2.60;;;;;;;33.24;26.92;100258.02;1721919;82;21351;-77
2023/08/24 07:37:45;;;;;;;4.62;2.17;;;;;;;33.38;26.30;100254.21;1711788;83;22589;-77
2023/08/24 07:40:53;;;;;;;7.37;2.40;;;;;;;33.48;26.32;100256.77;1741793;82;21312;-77
2023/08/24 07:43:59;;;;;;;9.50;2.77;;;;;;;33.70;26.05;100245.87;1712450;83;21902;-78
2023/08/24 07:47:06;;;;;;;8.60;2.70;;;;;;;33.74;26.16;100240.61;1741985;82;21327;-77
2023/08/24 07:50:13;;;;;;;8.73;2.90;;;;;;;33.88;25.87;100250.37;1711045;83;21894;-77
2023/08/24 07:53:19;;;;;;;7.60;2.90;;;;;;;33.93;25.52;100245.95;1740659;82;21363;-77
2023/08/24 07:56:25;;;;;;;5.75;2.45;;;;;;;33.95;25.75;100244.22;1712913;83;21363;-77
2023/08/24 07:59:31;;;;;;;11.05;3.12;;;;;;;34.19;25.91;100247.95;1741968;82;21316;-77
2023/08/24 08:02:37;;;;;;;11.40;2.55;;;;;;;34.32;25.52;100251.19;1712751;83;21355;-77
2023/08/24 08:05:43;;;;;;;10.15;2.45;;;;;;;33.92;25.22;100247.09;1740610;82;21204;-77
2023/08/24 08:08:51;;;;;;;6.17;2.00;;;;;;;33.93;24.40;100247.96;1712632;83;21319;-77
2023/08/24 08:11:57;;;;;;;8.73;2.22;;;;;;;33.93;24.33;100239.45;1741675;82;21882;-77
2023/08/24 08:15:03;;;;;;;8.50;2.22;;;;;;;34.10;24.16;100247.95;1711879;83;21902;-78
2023/08/24 08:18:08;;;;;;;7.95;2.55;;;;;;;34.06;23.90;100245.53;1706360;83;21305;-78
2023/08/24 08:21:23;;;;;;;8.93;2.40;;;;;;;34.16;23.77;100243.80;1687103;85;21337;-78
2023/08/24 08:24:28;;;;;;;8.43;2.42;;;;;;;34.10;23.81;100242.87;1688420;85;21333;-78
2023/08/24 08:27:36;;;;;;;5.87;2.05;;;;;;;34.04;24.35;100246.47;1688692;85;22523;-78
2023/08/24 08:30:42;;;;;;;6.25;1.90;;;;;;;33.90;23.83;100244.36;1688690;85;21929;-78
2023/08/24 08:33:49;;;;;;;3.92;1.60;;;;;;;33.94;23.69;100248.20;1687437;83;21328;-77
2023/08/24 08:36:55;;;;;;;12.18;2.05;;;;;;;34.12;23.20;100247.64;1688632;85;21352;-77
2023/08/24 08:40:01;;;;;;;6.65;2.10;;;;;;;34.14;23.54;100241.86;1687147;85;22323;-77
2023/08/24 08:43:07;;;;;;;6.08;1.65;;;;;;;33.98;23.67;100245.81;1688292;85;21351;-77
2023/08/24 08:46:15;;;;;;;14.18;3.02;;;;;;;33.98;23.81;100235.88;1687171;85;21360;-77
2023/08/24 08:49:21;;;;;;;7.40;2.55;;;;;;;34.04;24.29;100242.21;1687966;85;21325;-77
2023/08/24 08:52:27;;;;;;;10.03;2.15;;;;;;;34.15;24.50;100240.69;1687886;85;21337;-77
2023/08/24 08:55:34;;;;;;;8.70;2.05;;;;;;;34.21;24.20;100239.36;1686654;85;21369;-77
2023/08/24 08:58:43;;;;;;;12.28;2.25;;;;;;;34.18;23.74;100236.35;1689056;85;21903;-76
2023/08/24 09:01:52;;;;;;;6.78;2.02;;;;;;;34.31;23.93;100240.42;1687594;85;21380;-79
2023/08/24 09:04:59;;;;;;;6.35;2.10;;;;;;;34.40;23.68;100236.15;1688100;85;21316;-78
2023/08/24 09:08:06;;;;;;;6.42;1.77;;;;;;;34.37;23.48;100227.47;1689671;85;21744;-77
2023/08/24 09:11:12;;;;;;;5.95;2.33;;;;;;;34.62;23.44;100232.25;1689406;85;21649;-77
2023/08/24 09:14:17;;;;;;;5.65;2.37;;;;;;;34.57;23.71;100227.59;1687626;85;21335;-78
2023/08/24 09:17:30;;;;;;;5.08;2.00;;;;;;;34.57;23.53;100226.76;1697091;82;21331;-77
2023/08/24 09:20:37;;;;;;;7.37;1.87;;;;;;;34.55;23.53;100224.86;1725500;83;21319;-77
2023/08/24 09:23:44;;;;;;;7.22;1.90;;;;;;;34.33;23.92;100226.71;1725523;83;21311;-77
2023/08/24 09:26:51;;;;;;;7.70;2.12;;;;;;;34.11;24.03;100221.83;1724502;83;22327;-77
2023/08/24 09:29:59;;;;;;;5.87;2.08;;;;;;;34.23;24.18;100222.81;1725542;83;21220;-76
2023/08/24 09:33:10;;;;;;;6.62;1.85;;;;;;;33.59;24.70;100212.73;1724301;83;22027;-77
2023/08/24 09:36:15;;;;;;;9.70;2.25;;;;;;;33.54;25.13;100210.06;1724175;83;21394;-77
2023/08/24 09:39:24;;;;;;;6.80;1.75;;;;;;;34.02;24.66;100209.93;1725246;83;21323;-77
2023/08/24 09:42:32;;;;;;;5.70;1.80;;;;;;;34.38;24.58;100220.61;1725006;83;21731;-77
2023/08/24 09:45:39;;;;;;;3.20;1.90;;;;;;;34.25;24.34;100214.81;1725421;83;21320;-77
2023/08/24 09:48:45;;;;;;;7.47;1.95;;;;;;;34.61;23.90;100222.07;1723907;83;21354;-78
2023/08/24 09:51:51;;;;;;;13.85;2.08;;;;;;;34.60;24.20;100211.06;1725163;83;21361;-78
2023/08/24 09:54:58;;;;;;;3.83;1.90;;;;;;;34.80;24.14;100219.64;1710854;83;22318;-77
2023/08/24 09:58:03;;;;;;;4.92;2.17;;;;;;;34.74;23.89;100221.02;1724004;83;21926;-78
2023/08/24 10:01:09;;;;;;;10.60;2.27;;;;;;;34.82;23.37;100225.84;1725161;83;21358;-77
2023/08/24 10:04:17;;;;;;;11.70;2.52;;;;;;;34.82;23.54;100223.00;1724106;83;21371;-78
2023/08/24 10:07:23;;;;;;;4.90;1.95;;;;;;;34.64;23.52;100219.15;1724527;83;21315;-77
2023/08/24 10:10:33;;;;;;;5.70;2.00;;;;;;;34.28;23.74;100211.28;1725597;83;21327;-77
2023/08/24 10:14:09;;;;;;;7.55;1.80;;;;;;;34.19;23.68;100206.80;1701759;84;21886;-77
2023/08/24 10:17:16;;;;;;;7.58;1.85;;;;;;;34.27;24.40;100213.05;1702286;84;21970;-77
2023/08/24 10:20:22;;;;;;;5.28;2.12;;;;;;;34.37;23.96;100207.00;1709996;83;21379;-78
2023/08/24 10:23:28;;;;;;;3.52;1.87;;;;;;;34.45;24.15;100206.74;1757571;81;22435;-77
2023/08/24 10:26:34;;;;;;;4.45;1.77;;;;;;;34.47;23.73;100198.73;1757886;81;21324;-77
2023/08/24 10:29:41;;;;;;;6.15;2.12;;;;;;;34.78;23.44;100195.02;1758052;81;21320;-77
2023/08/24 10:32:49;;;;;;;5.78;2.17;;;;;;;34.86;23.84;100188.20;1760480;79;21330;-77
2023/08/24 10:35:56;;;;;;;5.33;2.67;;;;;;;34.82;23.69;100193.17;1768190;81;21319;-78
2023/08/24 10:39:07;;;;;;;7.25;2.17;;;;;;;34.76;23.73;100181.73;1767517;81;21355;-77
2023/08/24 10:42:15;;;;;;;4.95;2.10;;;;;;;34.74;23.97;100192.61;1768659;79;21885;-78
2023/08/24 10:45:24;;;;;;;5.87;2.20;;;;;;;34.94;23.50;100187.33;1741615;81;21823;-78
2023/08/24 10:48:31;;;;;;;5.90;2.20;;;;;;;34.89;23.38;100183.27;1756878;81;21329;-78
2023/08/24 10:51:37;;;;;;;7.15;2.08;;;;;;;34.80;23.75;100179.05;1768666;81;21324;-78
2023/08/24 10:54:44;;;;;;;8.18;2.85;;;;;;;34.88;23.61;100184.45;1769636;81;22385;-78
2023/08/24 10:57:51;;;;;;;10.80;2.40;;;;;;;34.82;23.64;100180.38;1741467;79;21318;-77
2023/08/24 11:00:57;;;;;;;11.00;2.30;;;;;;;34.76;23.84;100177.47;1800487;79;21921;-77
2023/08/24 11:04:04;;;;;;;3.52;2.00;;;;;;;34.91;23.85;100172.37;1799651;79;22304;-77
2023/08/24 11:07:10;;;;;;;7.15;2.05;;;;;;;34.97;23.67;100178.16;1798285;79;21342;-77
2023/08/24 11:10:20;;;;;;;5.53;2.27;;;;;;;34.70;24.04;100174.59;1799823;79;21993;-77
2023/08/24 11:13:26;;;;;;;7.47;2.25;;;;;;;34.50;24.23;100172.52;1799621;79;21304;-77
2023/08/24 11:16:51;;;;;;;8.20;2.67;;;;;;;34.42;24.50;100173.34;1799403;79;21363;-77
2023/08/24 11:20:00;;;;;;;4.83;2.22;;;;;;;34.49;24.67;100163.16;1797593;79;21386;-77
2023/08/24 11:23:06;;;;;;;8.23;2.50;;;;;;;34.47;24.24;100155.55;1801266;79;21779;-77
2023/08/24 11:26:13;;;;;;;5.72;2.30;;;;;;;34.64;24.03;100158.09;1731711;82;22034;-77
2023/08/24 11:29:18;;;;;;;8.13;2.65;;;;;;;34.71;24.79;100155.53;1798523;79;21590;-77
2023/08/24 11:32:27;;;;;;;8.05;2.27;;;;;;;35.01;23.88;100150.73;1797226;79;21316;-77
2023/08/24 11:35:34;;;;;;;13.58;2.70;;;;;;;35.00;23.62;100155.55;1766693;81;21389;-77
2023/08/24 11:38:49;;;;;;;11.30;2.80;;;;;;;35.04;23.92;100150.02;1766463;81;21205;-77
2023/08/24 11:42:11;;;;;;;12.75;2.40;;;;;;;35.04;24.14;100135.81;1758575;81;21343;-78
2023/08/24 11:45:21;;;;;;;5.42;2.65;;;;;;;35.03;24.08;100139.84;1768020;81;21311;-77
2023/08/24 11:48:32;;;;;;;5.58;2.40;;;;;;;35.12;23.69;100138.36;1767343;81;21865;-78
2023/08/24 11:51:39;;;;;;;5.42;2.45;;;;;;;34.99;23.79;100144.54;1769273;81;21205;-78
2023/08/24 11:54:45;;;;;;;5.37;2.65;;;;;;;34.98;23.75;100131.52;1769006;81;21227;-78
2023/08/24 11:57:51;;;;;;;10.68;2.90;;;;;;;35.26;23.48;100117.02;1768094;81;21221;-78
2023/08/24 12:00:56;;;;;;;5.80;2.92;;;;;;;35.53;22.94;100117.66;1768347;81;21622;-78
2023/08/24 12:04:03;;;;;;;5.70;2.80;;;;;;;35.43;22.90;100120.31;1768061;81;21343;-78
2023/08/24 12:07:12;;;;;;;5.50;2.45;;;;;;;35.55;22.88;100115.28;1768100;81;21356;-79
2023/08/24 12:10:18;;;;;;;13.58;2.50;;;;;;;34.76;24.04;100116.40;1766837;81;21309;-79
2023/08/24 12:13:23;;;;;;;5.83;2.50;;;;;;;35.03;23.78;100113.67;1730137;81;21311;-79
2023/08/24 12:16:30;;;;;;;8.08;2.62;;;;;;;34.87;23.88;100114.02;1751375;81;21307;-79
2023/08/24 12:19:39;;;;;;;11.65;3.70;;;;;;;35.25;23.54;100108.25;1803010;79;21909;-77
2023/08/24 12:22:47;;;;;;;6.85;2.67;;;;;;;35.03;23.84;100100.88;1694900;84;21334;-77
2023/08/24 12:25:52;;;;;;;8.45;2.70;;;;;;;35.43;23.43;100107.52;1723436;83;22612;-78
2023/08/24 12:28:59;;;;;;;7.35;2.83;;;;;;;35.08;23.91;100099.84;1699246;84;21319;-77
2023/08/24 12:32:05;;;;;;;6.60;2.75;;;;;;;35.55;23.44;100101.06;1723660;83;21331;-78
2023/08/24 12:35:11;;;;;;;6.58;2.75;;;;;;;35.77;23.24;100095.59;1723100;83;21399;-77
2023/08/24 12:38:17;;;;;;;5.75;2.45;;;;;;;35.77;22.93;100092.15;1722694;83;21397;-77
2023/08/24 12:41:24;;;;;;;6.75;2.40;;;;;;;35.78;22.86;100086.69;1701657;84;21851;-77
2023/08/24 12:44:29;;;;;;;5.90;2.55;;;;;;;35.73;23.37;100088.34;1695375;83;21315;-77
2023/08/24 12:47:37;;;;;;;6.15;2.55;;;;;;;35.58;23.14;100086.16;1706268;84;21315;-77
2023/08/24 12:50:45;;;;;;;6.60;2.60;;;;;;;35.70;23.10;100082.51;1705538;84;21379;-78
2023/08/24 12:53:51;;;;;;;8.15;2.92;;;;;;;35.73;23.00;100078.38;1707465;84;21367;-77
2023/08/24 12:56:57;;;;;;;7.62;3.33;;;;;;;35.80;23.37;100084.91;1706215;84;21338;-78
2023/08/24 13:00:04;;;;;;;11.95;3.15;;;;;;;35.68;23.11;100077.18;1705065;84;21367;-78
2023/08/24 13:03:11;;;;;;;6.50;2.65;;;;;;;35.70;23.65;100075.40;1706114;84;21870;-78
2023/08/24 13:06:16;;;;;;;14.10;3.65;;;;;;;35.70;23.65;100075.40;1705415;84;21411;-78
2023/08/24 13:09:25;;;;;;;6.00;2.50;;;;;;;35.67;23.24;100070.43;1705972;84;21783;-78
2023/08/24 13:12:32;;;;;;;8.85;3.02;;;;;;;35.59;23.46;100062.22;1708035;84;21280;-78
2023/08/24 13:15:37;;;;;;;9.30;3.08;;;;;;;35.65;23.51;100065.08;1708341;84;21280;-78
2023/08/24 13:18:42;;;;;;;9.43;3.00;;;;;;;35.66;23.25;100072.41;1708021;84;21341;-78
2023/08/24 13:21:48;;;;;;;10.95;3.08;;;;;;;35.34;23.39;100066.36;1714404;82;21334;-78
2023/08/24 13:24:57;;;;;;;7.42;3.35;;;;;;;35.71;23.11;100066.53;1715950;83;21306;-78
2023/08/24 13:28:03;;;;;;;7.08;2.77;;;;;;;35.25;23.72;100057.67;1742285;82;21299;-78
2023/08/24 13:31:09;;;;;;;13.30;3.62;;;;;;;35.01;24.09;100056.95;1721083;83;22618;-78
2023/08/24 13:34:15;;;;;;;5.17;2.77;;;;;;;35.34;23.84;100056.41;1713528;83;21536;-78
2023/08/24 13:37:23;;;;;;;5.53;2.92;;;;;;;35.13;23.84;100049.90;1742984;82;21893;-78
2023/08/24 13:40:29;;;;;;;8.15;3.22;;;;;;;35.06;23.85;100043.36;1724933;83;21367;-78
2023/08/24 13:43:36;;;;;;;11.85;3.20;;;;;;;34.89;24.00;100044.05;1715818;83;21914;-78
2023/08/24 13:46:42;;;;;;;6.12;2.72;;;;;;;34.82;23.85;100044.02;1744620;82;21366;-78
2023/08/24 13:49:48;;;;;;;6.70;2.98;;;;;;;34.86;24.14;100041.89;1715479;83;22414;-78
2023/08/24 13:52:55;;;;;;;6.45;3.20;;;;;;;34.56;24.33;100047.03;1735109;82;21352;-78
2023/08/24 13:56:01;;;;;;;6.95;2.90;;;;;;;34.55;24.65;100041.70;1736558;82;21344;-78
2023/08/24 13:59:06;;;;;;;7.45;3.15;;;;;;;34.78;24.14;100041.63;1736182;82;21340;-79
2023/08/24 14:02:13;;;;;;;12.68;2.90;;;;;;;34.75;24.08;100029.53;1735629;82;21630;-78
2023/08/24 14:05:20;;;;;;;16.45;2.98;;;;;;;34.90;24.07;100029.49;1737765;82;21309;-77
2023/08/24 14:08:25;;;;;;;8.25;2.80;;;;;;;34.77;24.38;100025.77;1736427;82;21963;-78
2023/08/24 14:11:31;;;;;;;8.43;2.70;;;;;;;34.92;24.42;100030.59;1736743;82;21313;-78
2023/08/24 14:14:37;;;;;;;7.62;2.67;;;;;;;34.90;24.33;100025.82;1737250;82;21703;-78
2023/08/24 14:17:43;;;;;;;7.78;3.08;;;;;;;34.87;24.43;100023.11;1736313;82;21931;-78
2023/08/24 14:20:49;;;;;;;10.28;2.62;;;;;;;34.75;24.32;100021.00;1736576;82;21906;-78
2023/08/24 14:23:55;;;;;;;5.92;2.58;;;;;;;34.83;23.70;100024.38;1721644;82;21352;-77
2023/08/24 14:27:02;;;;;;;8.68;2.80;;;;;;;34.82;23.74;100026.16;1711319;84;21320;-77